Terminal Aerodrome Forecast
Issued by NWS

Home | Current Version | Previous Version | Text Only | Print | Product List | Glossary On
Versions: 1 2 3 4 5 6 7 8 9 10 11 12 13 14 15 16 17 18 19 20
000
FTUS43 KSGF 240100 AAA
TAFJLN
TAF AMD
KJLN 240138Z 2402/2424 13009KT P6SM VCTS OVC060CB
     FM240400 15012G22KT 5SM -TSRA OVC030CB
     FM241200 17014G15KT 4SM -RA BR OVC015
     FM241800 15012G18KT P6SM VCTS OVC030CB
      TEMPO 2418/2422 5SM -TSRA=

USA.gov is the U.S. government's official web portal to all federal, state and local government web resources and services.